Time;durP1;ratioP1;P1;durP2;ratioP2;P2;SDS_P1;SDS_P2;PMS_P1;PMS_P2;Temp;Humidity;BMP_temperature;BMP_pressure;BME280_temperature;BME280_humidity;BME280_pressure;Samples;Min_cycle;Max_cycle;Signal;HPM_P1;HPM_P2
2021/04/04 00:00:28;;;;;;;23.40;10.88;;;;;;;2.56;64.53;99104.48;1692638;84;21159;-66
2021/04/04 00:02:56;;;;;;;19.87;11.20;;;;;;;2.61;64.32;99100.35;1709574;84;21164;-66
2021/04/04 00:05:23;;;;;;;21.10;10.80;;;;;;;2.77;63.74;99112.19;1708787;82;21659;-65
2021/04/04 00:07:51;;;;;;;17.92;10.82;;;;;;;2.81;63.21;99105.89;1705626;83;21549;-65
2021/04/04 00:10:18;;;;;;;31.30;12.13;;;;;;;2.84;62.98;99112.73;1681086;85;21180;-65
2021/04/04 00:12:46;;;;;;;27.87;13.05;;;;;;;2.85;62.92;99109.20;1681129;85;21479;-65
2021/04/04 00:15:15;;;;;;;23.20;12.03;;;;;;;2.88;63.05;99110.38;1694338;84;21222;-65
2021/04/04 00:17:42;;;;;;;22.80;12.18;;;;;;;2.89;63.32;99112.91;1684228;84;21330;-66
2021/04/04 00:20:12;;;;;;;29.80;14.20;;;;;;;2.95;63.52;99110.44;1681204;85;21205;-65
2021/04/04 00:22:39;;;;;;;27.75;13.28;;;;;;;2.94;63.21;99116.58;1681374;84;21635;-66
2021/04/04 00:25:09;;;;;;;25.62;11.93;;;;;;;2.93;62.97;99113.14;1688808;84;21158;-66
2021/04/04 00:27:36;;;;;;;23.47;12.23;;;;;;;2.89;63.61;99120.75;1719160;83;21616;-67
2021/04/04 00:30:11;;;;;;;26.10;13.08;;;;;;;2.85;63.84;99115.73;1700066;83;21194;-65
2021/04/04 00:32:39;;;;;;;28.20;13.48;;;;;;;2.89;63.50;99113.34;1693627;85;21203;-65
2021/04/04 00:35:12;;;;;;;27.58;14.10;;;;;;;2.88;63.44;99111.69;1709265;83;21288;-65
2021/04/04 00:37:39;;;;;;;26.87;13.98;;;;;;;2.94;63.19;99117.45;1694379;83;21186;-65
2021/04/04 00:40:13;;;;;;;57.03;26.17;;;;;;;3.01;63.18;99110.14;1694173;84;21147;-65
2021/04/04 00:42:41;;;;;;;55.55;26.30;;;;;;;2.97;63.57;99121.67;1700515;83;21325;-64
2021/04/04 00:45:22;;;;;;;48.30;22.65;;;;;;;2.89;63.95;99123.80;1723078;83;21183;-64
2021/04/04 00:47:50;;;;;;;42.70;21.75;;;;;;;2.71;64.60;99135.54;1694694;85;21207;-64
2021/04/04 00:50:21;;;;;;;38.95;20.37;;;;;;;2.52;65.08;99134.70;1694344;85;21678;-64
2021/04/04 00:52:49;;;;;;;39.30;20.85;;;;;;;2.38;65.95;99140.13;1721762;83;21163;-64
2021/04/04 00:55:17;;;;;;;57.35;27.30;;;;;;;2.35;66.47;99148.08;1705474;83;21166;-64
2021/04/04 00:57:44;;;;;;;49.30;24.77;;;;;;;2.38;66.71;99144.03;1699241;83;21167;-64
2021/04/04 01:00:15;;;;;;;48.33;24.10;;;;;;;2.51;66.76;99146.09;1694570;85;21206;-64
2021/04/04 01:02:43;;;;;;;51.10;24.98;;;;;;;2.75;66.44;99135.77;1694652;85;21325;-64
2021/04/04 01:05:14;;;;;;;57.23;26.35;;;;;;;2.89;66.25;99129.02;1715532;83;21155;-64
2021/04/04 01:07:44;;;;;;;48.00;24.30;;;;;;;2.92;66.02;99130.20;1714800;83;21600;-64
2021/04/04 01:10:12;;;;;;;67.95;28.92;;;;;;;2.96;65.96;99133.03;1723529;83;21171;-64
2021/04/04 01:13:18;;;;;;;53.10;26.27;;;;;;;2.98;65.80;99131.20;1723430;83;21693;-64
2021/04/04 01:16:18;;;;;;;70.42;32.13;;;;;;;3.00;65.66;99130.66;1713732;83;21166;-64
2021/04/04 01:19:07;;;;;;;63.95;29.87;;;;;;;3.01;65.65;99132.34;1694516;85;21344;-65
2021/04/04 01:21:55;;;;;;;66.47;29.67;;;;;;;3.03;65.57;99137.05;1694378;85;21199;-64
2021/04/04 01:24:51;;;;;;;63.58;31.80;;;;;;;3.01;65.60;99132.34;1694507;84;21706;-64
2021/04/04 01:27:53;;;;;;;70.47;30.97;;;;;;;3.03;65.68;99137.05;1694601;83;21563;-64
2021/04/04 01:30:21;;;;;;;62.62;28.80;;;;;;;3.03;65.69;99137.49;1695096;83;21630;-64
2021/04/04 01:32:49;;;;;;;62.62;29.15;;;;;;;3.08;65.57;99131.14;1718338;83;21167;-64
2021/04/04 01:35:17;;;;;;;65.52;30.97;;;;;;;3.27;65.18;99134.13;1721299;83;21198;-64
2021/04/04 01:37:45;;;;;;;69.22;30.27;;;;;;;3.31;65.12;99139.58;1723515;82;21163;-64
2021/04/04 01:40:15;;;;;;;61.40;28.00;;;;;;;3.28;65.26;99143.66;1723282;83;21183;-64
2021/04/04 01:42:42;;;;;;;58.15;29.72;;;;;;;3.27;65.28;99139.35;1696818;83;21166;-64
2021/04/04 01:45:10;;;;;;;54.33;27.07;;;;;;;3.28;65.23;99135.82;1723430;83;21679;-64
2021/04/04 01:47:40;;;;;;;54.80;24.40;;;;;;;3.28;65.27;99135.82;1695032;83;21171;-65
2021/04/04 01:50:09;;;;;;;63.20;26.77;;;;;;;3.26;65.39;99140.27;1694302;85;21643;-64
2021/04/04 01:52:36;;;;;;;62.78;28.95;;;;;;;3.17;65.75;99156.41;1694305;85;21206;-64
2021/04/04 01:55:05;;;;;;;64.07;29.65;;;;;;;3.01;66.42;99157.64;1676579;83;21292;-65
2021/04/04 01:57:32;;;;;;;60.55;28.83;;;;;;;2.88;66.88;99153.47;1723332;83;21199;-64
2021/04/04 02:00:03;;;;;;;58.73;31.05;;;;;;;3.01;66.89;99145.41;1696735;83;21318;-65
2021/04/04 02:02:32;;;;;;;54.98;27.87;;;;;;;3.15;67.03;99143.91;1722011;83;21187;-65
2021/04/04 02:05:00;;;;;;;50.70;26.73;;;;;;;3.13;66.99;99144.43;1697478;83;21312;-65
2021/04/04 02:07:28;;;;;;;50.75;25.70;;;;;;;3.13;66.77;99145.73;1710459;83;21178;-66
2021/04/04 02:09:57;;;;;;;45.90;25.35;;;;;;;3.16;66.60;99148.18;1723537;83;21175;-67
2021/04/04 02:12:25;;;;;;;40.50;23.80;;;;;;;3.16;66.51;99135.98;1723780;83;21227;-66
2021/04/04 02:14:53;;;;;;;46.53;24.02;;;;;;;3.18;66.44;99147.66;1718405;83;21166;-66
2021/04/04 02:17:21;;;;;;;43.87;24.98;;;;;;;3.16;66.35;99140.34;1723345;83;21150;-66
2021/04/04 02:19:49;;;;;;;50.00;23.67;;;;;;;3.18;66.24;99146.35;1723363;83;21183;-66
2021/04/04 02:22:17;;;;;;;40.08;20.92;;;;;;;3.14;66.31;99140.91;1723275;83;21182;-65
2021/04/04 02:24:44;;;;;;;38.05;21.15;;;;;;;3.17;66.24;99142.05;1722658;83;21234;-65
2021/04/04 02:27:11;;;;;;;39.23;21.68;;;;;;;3.36;65.91;99141.50;1696725;83;21139;-65
2021/04/04 02:29:38;;;;;;;45.55;24.43;;;;;;;3.41;65.83;99142.58;1722224;83;21178;-65
2021/04/04 02:32:05;;;;;;;41.83;23.80;;;;;;;3.38;65.89;99135.73;1723362;83;21269;-65
2021/04/04 02:34:36;;;;;;;44.95;24.27;;;;;;;3.35;65.90;99139.83;1721140;83;21277;-65
2021/04/04 02:37:06;;;;;;;48.10;24.55;;;;;;;3.37;65.93;99130.13;1710117;82;21190;-65
2021/04/04 02:39:55;;;;;;;49.00;24.67;;;;;;;3.37;65.93;99127.51;1723101;83;21151;-65
2021/04/04 02:42:24;;;;;;;51.68;23.95;;;;;;;3.30;66.01;99131.38;1696551;83;21236;-65
2021/04/04 02:44:53;;;;;;;47.15;23.85;;;;;;;3.34;66.08;99126.38;1722773;83;21175;-66
2021/04/04 02:47:34;;;;;;;46.70;23.62;;;;;;;3.55;65.58;99127.03;1695208;83;21211;-64
2021/04/04 02:50:02;;;;;;;41.90;21.27;;;;;;;3.63;65.58;99125.80;1688965;85;21344;-64
2021/04/04 02:52:29;;;;;;;43.58;22.27;;;;;;;3.56;65.62;99118.74;1694436;85;21187;-64
2021/04/04 02:54:57;;;;;;;35.20;20.27;;;;;;;3.56;65.62;99123.97;1699998;83;21195;-64
2021/04/04 02:57:27;;;;;;;37.58;19.60;;;;;;;3.59;65.38;99121.19;1720197;83;21159;-65
2021/04/04 02:59:59;;;;;;;33.25;19.45;;;;;;;3.62;65.18;99121.05;1723479;83;21464;-64
2021/04/04 03:02:26;;;;;;;34.35;18.07;;;;;;;3.68;65.00;99115.47;1723461;83;21608;-64
2021/04/04 03:04:53;;;;;;;31.05;16.75;;;;;;;3.71;64.76;99130.16;1723212;83;21520;-64
2021/04/04 03:07:23;;;;;;;27.07;16.50;;;;;;;3.72;64.63;99122.70;1722733;83;21285;-64
2021/04/04 03:09:53;;;;;;;34.40;20.25;;;;;;;3.87;64.38;99124.98;1723409;83;21431;-64
2021/04/04 03:12:21;;;;;;;33.80;19.52;;;;;;;3.92;64.24;99143.89;1723357;83;21202;-65
2021/04/04 03:14:50;;;;;;;38.15;20.45;;;;;;;3.79;64.53;99142.39;1704228;83;22162;-64
2021/04/04 03:17:17;;;;;;;30.82;18.30;;;;;;;3.70;64.82;99137.17;1698249;83;21615;-64
2021/04/04 03:19:45;;;;;;;40.65;21.45;;;;;;;3.58;65.27;99130.81;1694838;85;21321;-64
2021/04/04 03:22:13;;;;;;;37.53;21.45;;;;;;;3.50;65.55;99136.05;1694397;85;21155;-65
2021/04/04 03:24:41;;;;;;;35.25;19.73;;;;;;;3.42;65.76;99141.19;1695064;83;21207;-65
2021/04/04 03:27:08;;;;;;;41.58;21.10;;;;;;;3.36;65.93;99142.80;1695354;83;21745;-65
2021/04/04 03:29:35;;;;;;;31.93;18.55;;;;;;;3.26;66.10;99148.11;1694691;85;21159;-65
2021/04/04 03:32:03;;;;;;;31.07;17.23;;;;;;;3.17;66.45;99161.64;1705970;83;21121;-65
2021/04/04 03:34:30;;;;;;;30.65;17.98;;;;;;;3.17;66.88;99157.72;1671216;85;21318;-65
2021/04/04 03:36:58;;;;;;;28.87;17.80;;;;;;;3.26;66.72;99158.56;1695014;83;21627;-65
2021/04/04 03:39:26;;;;;;;31.87;17.42;;;;;;;3.24;67.00;99170.41;1695225;83;21175;-66
2021/04/04 03:41:55;;;;;;;31.95;16.32;;;;;;;3.20;67.23;99160.20;1715655;83;21183;-64
2021/04/04 03:44:24;;;;;;;28.75;16.73;;;;;;;3.17;67.51;99161.64;1723325;83;21163;-65
2021/04/04 03:46:51;;;;;;;32.33;17.12;;;;;;;3.10;67.75;99158.48;1702803;83;21190;-66
2021/04/04 03:49:19;;;;;;;37.13;17.12;;;;;;;3.09;68.10;99169.38;1698219;83;21146;-66
2021/04/04 03:51:47;;;;;;;29.30;16.48;;;;;;;3.07;68.17;99162.09;1694419;83;21178;-65
2021/04/04 03:54:16;;;;;;;27.37;16.57;;;;;;;3.11;68.33;99166.25;1694724;83;21139;-66
2021/04/04 03:56:48;;;;;;;31.23;17.82;;;;;;;3.15;68.48;99170.03;1723212;83;21655;-66
2021/04/04 03:59:17;;;;;;;37.38;18.65;;;;;;;3.16;68.54;99168.64;1723067;83;21179;-66
2021/04/04 04:01:46;;;;;;;37.15;19.98;;;;;;;3.30;68.24;99173.63;1723339;83;21174;-66
2021/04/04 04:04:14;;;;;;;36.55;20.97;;;;;;;3.46;67.82;99166.72;1721077;83;21332;-65
2021/04/04 04:06:45;;;;;;;35.85;19.75;;;;;;;3.49;67.88;99170.51;1723209;82;21167;-66
2021/04/04 04:09:15;;;;;;;42.03;23.52;;;;;;;3.51;67.85;99171.73;1702670;83;21150;-66
2021/04/04 04:11:45;;;;;;;40.20;23.00;;;;;;;3.51;67.89;99169.11;1694559;85;21297;-66
2021/04/04 04:14:15;;;;;;;39.30;21.80;;;;;;;3.48;67.93;99174.48;1708414;83;21623;-67
2021/04/04 04:16:42;;;;;;;41.98;20.85;;;;;;;3.44;68.02;99179.05;1695070;83;21175;-64
2021/04/04 04:19:10;;;;;;;40.05;21.93;;;;;;;3.44;68.12;99182.97;1703167;83;21211;-65
2021/04/04 04:23:09;;;;;;;46.70;24.07;;;;;;;3.53;68.24;99186.86;1780303;79;23477;-64
2021/04/04 04:25:37;;;;;;;45.63;23.12;;;;;;;3.64;67.95;99189.78;1752641;82;21135;-65
2021/04/04 04:28:06;;;;;;;46.50;23.60;;;;;;;3.82;67.66;99191.08;1724738;82;21154;-65
2021/04/04 04:30:33;;;;;;;49.10;24.27;;;;;;;3.81;67.75;99194.61;1723222;83;21587;-65
2021/04/04 04:33:06;;;;;;;51.68;25.08;;;;;;;3.75;67.80;99195.31;1739589;82;21131;-65
2021/04/04 04:35:36;;;;;;;44.20;24.70;;;;;;;3.74;67.97;99199.32;1731814;82;21167;-65
2021/04/04 04:38:04;;;;;;;38.28;22.37;;;;;;;3.77;68.07;99203.08;1725007;82;21162;-65
2021/04/04 04:40:31;;;;;;;35.20;18.65;;;;;;;3.76;68.27;99208.78;1720873;83;21265;-65
2021/04/04 04:42:58;;;;;;;32.08;17.85;;;;;;;3.75;68.68;99209.70;1714616;83;21135;-65
2021/04/04 04:45:32;;;;;;;29.60;15.93;;;;;;;3.87;68.90;99207.39;1694083;85;21236;-65
2021/04/04 04:48:00;;;;;;;28.73;15.28;;;;;;;4.02;68.83;99206.59;1696324;83;21166;-65
2021/04/04 04:50:27;;;;;;;22.48;13.58;;;;;;;4.01;69.08;99206.67;1666783;85;21162;-65
2021/04/04 04:53:03;;;;;;;25.32;15.38;;;;;;;3.99;69.42;99204.14;1694644;83;21155;-65
2021/04/04 04:55:31;;;;;;;21.33;13.15;;;;;;;4.02;69.63;99217.53;1684319;83;21159;-66
2021/04/04 04:57:59;;;;;;;20.57;11.60;;;;;;;4.08;69.70;99210.20;1708159;83;21170;-66
2021/04/04 05:00:27;;;;;;;20.20;12.03;;;;;;;4.17;69.62;99212.80;1666855;85;21295;-66
2021/04/04 05:02:54;;;;;;;20.12;10.15;;;;;;;4.57;69.13;99202.80;1694454;85;21596;-66
2021/04/04 05:05:22;;;;;;;22.40;12.28;;;;;;;4.89;68.29;99217.70;1710906;83;21170;-66
2021/04/04 05:07:49;;;;;;;22.73;12.65;;;;;;;4.84;68.15;99207.94;1705461;82;21304;-67
2021/04/04 05:10:17;;;;;;;22.22;12.53;;;;;;;4.88;68.31;99200.28;1685480;83;21147;-67
2021/04/04 05:12:58;;;;;;;22.27;12.35;;;;;;;4.99;68.06;99210.17;1718658;83;21186;-66
2021/04/04 05:15:26;;;;;;;18.90;10.53;;;;;;;5.16;67.95;99216.61;1717645;83;21594;-65
2021/04/04 05:17:54;;;;;;;18.17;10.85;;;;;;;5.25;67.37;99212.62;1722920;83;21285;-65
2021/04/04 05:20:21;;;;;;;21.17;11.43;;;;;;;5.33;67.33;99218.28;1709647;83;21174;-65
2021/04/04 05:22:49;;;;;;;18.12;11.00;;;;;;;5.31;67.63;99220.62;1715788;83;21110;-65
2021/04/04 05:25:16;;;;;;;21.65;10.80;;;;;;;5.24;67.83;99215.72;1713140;83;21182;-65
2021/04/04 05:27:44;;;;;;;22.98;11.75;;;;;;;5.25;68.09;99218.70;1715042;83;21182;-65
2021/04/04 05:30:12;;;;;;;18.73;10.63;;;;;;;5.25;68.31;99223.11;1719439;83;21206;-65
2021/04/04 05:32:49;;;;;;;19.10;11.00;;;;;;;5.43;68.43;99220.38;1694753;85;21413;-65
2021/04/04 05:35:23;;;;;;;13.58;8.15;;;;;;;5.70;67.76;99216.16;1710672;83;21151;-66
2021/04/04 05:37:52;;;;;;;11.18;7.28;;;;;;;5.89;67.14;99224.23;1694262;83;21224;-65
2021/04/04 05:40:25;;;;;;;11.40;7.40;;;;;;;5.82;67.14;99227.70;1700783;83;21309;-65
2021/04/04 05:42:58;;;;;;;12.60;6.95;;;;;;;5.71;67.23;99230.10;1721060;83;21111;-65
2021/04/04 05:45:46;;;;;;;11.65;7.12;;;;;;;5.69;68.36;99231.52;1719746;83;21207;-66
2021/04/04 05:48:57;;;;;;;8.18;5.47;;;;;;;5.69;67.63;99232.83;1704283;83;22284;-64
2021/04/04 05:51:38;;;;;;;9.90;5.12;;;;;;;5.78;67.24;99243.25;1722144;83;21316;-65
2021/04/04 05:54:47;;;;;;;7.95;5.35;;;;;;;5.81;65.87;99236.98;1725533;82;21119;-64
2021/04/04 05:57:19;;;;;;;8.88;5.55;;;;;;;5.64;66.51;99237.49;1712448;83;21253;-64
2021/04/04 05:59:48;;;;;;;11.43;6.67;;;;;;;5.55;67.18;99245.87;1702417;83;21603;-64
2021/04/04 06:02:43;;;;;;;13.22;6.62;;;;;;;5.60;67.18;99246.48;1698394;83;21678;-65
2021/04/04 06:05:45;;;;;;;10.40;6.47;;;;;;;5.65;66.78;99247.06;1698709;83;21174;-66
2021/04/04 06:08:47;;;;;;;12.30;6.92;;;;;;;5.85;66.27;99251.12;1698825;83;21136;-66
2021/04/04 06:11:37;;;;;;;10.38;6.55;;;;;;;5.91;65.86;99255.18;1686111;85;21320;-65
2021/04/04 06:14:29;;;;;;;10.80;6.58;;;;;;;5.83;66.08;99253.45;1706467;83;21765;-65
2021/04/04 06:17:14;;;;;;;14.40;6.65;;;;;;;5.79;66.33;99260.66;1698435;83;21111;-65
2021/04/04 06:20:09;;;;;;;9.70;5.85;;;;;;;5.78;66.46;99262.06;1706619;83;21294;-66
2021/04/04 06:23:08;;;;;;;9.65;5.97;;;;;;;5.90;66.31;99256.11;1696703;83;21634;-64
2021/04/04 06:25:59;;;;;;;9.65;5.70;;;;;;;6.10;65.78;99256.73;1700760;84;21183;-65
2021/04/04 06:28:41;;;;;;;9.48;5.83;;;;;;;6.11;65.38;99264.51;1697478;84;21135;-65
2021/04/04 06:31:32;;;;;;;9.23;5.85;;;;;;;6.06;65.26;99252.98;1655695;84;21203;-65
2021/04/04 06:34:26;;;;;;;12.53;6.35;;;;;;;6.03;65.30;99261.03;1690446;84;21167;-65
2021/04/04 06:37:32;;;;;;;7.70;5.53;;;;;;;5.98;65.58;99270.95;1706573;84;21643;-65
2021/04/04 06:40:08;;;;;;;;;;;;;;;6.11;65.65;99267.61;1689164;84;21195;-65
2021/04/04 06:43:02;;;;;;;8.33;5.42;;;;;;;6.26;65.43;99279.82;1694002;84;20169;-65
2021/04/04 06:46:09;;;;;;;8.25;5.53;;;;;;;6.22;65.60;99273.07;1688841;84;21302;-66
2021/04/04 06:49:00;;;;;;;8.40;5.20;;;;;;;6.30;65.65;99266.05;1689812;84;21151;-65
2021/04/04 06:51:53;;;;;;;8.55;5.37;;;;;;;6.49;65.29;99284.16;1697060;84;21572;-65
2021/04/04 06:54:53;;;;;;;9.73;5.47;;;;;;;6.55;64.98;99279.85;1684965;83;21131;-65
2021/04/04 06:57:42;;;;;;;13.32;5.90;;;;;;;6.65;64.96;99283.59;1688527;84;21293;-66
2021/04/04 07:00:13;;;;;;;8.70;5.60;;;;;;;7.02;64.44;99285.25;1703782;84;21258;-65
2021/04/04 07:02:58;;;;;;;10.68;5.75;;;;;;;7.14;63.41;99281.47;1698814;84;21184;-65
2021/04/04 07:05:31;;;;;;;10.63;6.58;;;;;;;7.04;63.58;99284.66;1683058;84;21167;-65
2021/04/04 07:08:17;;;;;;;;;;;;;;;7.01;63.58;99288.81;1692115;84;21136;-66
2021/04/04 07:11:20;;;;;;;7.95;5.55;;;;;;;7.03;63.65;99292.20;1684628;84;20135;-65
2021/04/04 07:14:18;;;;;;;8.97;6.00;;;;;;;7.03;63.70;99289.57;1653910;85;21179;-65
2021/04/04 07:17:24;;;;;;;8.78;6.20;;;;;;;7.07;63.78;99297.25;1644963;86;21350;-65
2021/04/04 07:20:33;;;;;;;9.40;6.12;;;;;;;7.16;63.99;99292.72;1691134;84;21209;-65
2021/04/04 07:23:21;;;;;;;7.67;5.40;;;;;;;7.46;62.92;99288.59;1683814;84;21147;-65
2021/04/04 07:26:06;;;;;;;6.55;4.53;;;;;;;7.73;61.72;99289.53;1680786;84;21624;-65
2021/04/04 07:28:57;;;;;;;;;;;;;;;7.74;61.21;99289.88;1695879;84;21175;-65
2021/04/04 07:31:29;;;;;;;8.20;5.33;;;;;;;7.78;60.59;99288.76;1665052;84;20208;-65
2021/04/04 07:34:19;;;;;;;9.53;5.60;;;;;;;7.75;60.95;99290.26;1676733;84;21612;-65
2021/04/04 07:37:12;;;;;;;8.70;5.65;;;;;;;7.83;60.63;99289.30;1704687;84;21159;-65
2021/04/04 07:39:54;;;;;;;8.35;5.72;;;;;;;7.90;60.24;99288.41;1704463;84;21184;-65
2021/04/04 07:42:41;;;;;;;9.40;5.90;;;;;;;7.94;60.07;99281.98;1704207;84;21850;-65
2021/04/04 07:45:28;;;;;;;9.33;6.25;;;;;;;7.99;60.45;99286.02;1641762;85;21175;-65
2021/04/04 07:48:28;;;;;;;7.37;5.45;;;;;;;8.08;59.65;99290.28;1697162;84;21148;-66
2021/04/04 07:51:06;;;;;;;8.18;5.67;;;;;;;8.11;59.30;99286.14;1692798;84;21190;-65
2021/04/04 07:54:09;;;;;;;8.65;5.90;;;;;;;8.04;58.84;99291.81;1693760;84;21659;-65
2021/04/04 07:57:09;;;;;;;9.48;5.67;;;;;;;7.97;58.44;99294.48;1680908;85;21207;-64
2021/04/04 07:59:45;;;;;;;7.83;5.72;;;;;;;7.84;58.91;99290.99;1685042;84;21336;-65
2021/04/04 08:02:20;;;;;;;7.97;4.92;;;;;;;7.78;59.79;99292.22;1683784;84;21195;-64
2021/04/04 08:05:03;;;;;;;7.67;5.25;;;;;;;7.98;59.44;99294.86;1688682;84;21196;-64
2021/04/04 08:07:52;;;;;;;8.83;5.12;;;;;;;8.08;58.63;99284.56;1697528;84;21301;-65
2021/04/04 08:10:55;;;;;;;6.90;5.30;;;;;;;8.08;58.92;99290.28;1701272;84;21313;-64
2021/04/04 08:13:44;;;;;;;5.87;4.25;;;;;;;8.15;58.95;99286.30;1698307;84;21293;-65
2021/04/04 08:16:56;;;;;;;5.33;4.30;;;;;;;8.14;58.00;99279.34;1679005;85;21317;-65
2021/04/04 08:19:23;;;;;;;7.22;4.80;;;;;;;8.08;58.06;99283.70;1685131;84;21155;-65
2021/04/04 08:22:08;;;;;;;6.40;4.58;;;;;;;7.94;58.37;99290.75;1692103;84;21552;-65
2021/04/04 08:24:47;;;;;;;7.45;4.80;;;;;;;7.95;58.67;99288.95;1683710;85;21163;-65
2021/04/04 08:27:49;;;;;;;6.95;4.60;;;;;;;7.99;58.54;99286.47;1685365;84;21174;-65
2021/04/04 08:30:26;;;;;;;7.25;4.75;;;;;;;8.09;58.51;99280.12;1683987;85;21695;-66
2021/04/04 08:33:05;;;;;;;6.47;4.50;;;;;;;8.19;57.78;99275.42;1683376;85;21288;-64
2021/04/04 08:35:39;;;;;;;5.62;4.40;;;;;;;8.24;57.29;99279.08;1683765;85;21663;-64
2021/04/04 08:38:27;;;;;;;5.75;4.65;;;;;;;8.31;56.89;99274.23;1686736;84;21216;-66
2021/04/04 08:40:58;;;;;;;9.20;4.62;;;;;;;8.41;57.14;99277.08;1697041;84;21635;-65
2021/04/04 08:43:27;;;;;;;7.05;5.42;;;;;;;8.65;57.00;99275.88;1675139;84;21716;-65
2021/04/04 08:46:27;;;;;;;7.47;5.00;;;;;;;8.80;55.99;99266.89;1667064;86;21204;-66
2021/04/04 08:48:55;;;;;;;6.78;5.30;;;;;;;8.85;55.47;99271.36;1675561;84;21651;-66
2021/04/04 08:51:25;;;;;;;8.45;5.42;;;;;;;8.92;55.70;99269.13;1709866;84;21175;-64
2021/04/04 08:53:53;;;;;;;7.92;5.37;;;;;;;8.97;54.73;99268.81;1709877;84;21214;-66
2021/04/04 08:56:21;;;;;;;8.10;5.25;;;;;;;8.90;55.20;99269.73;1709744;84;21192;-66
2021/04/04 08:58:51;;;;;;;9.63;6.17;;;;;;;8.91;55.25;99265.28;1709677;83;21663;-66
2021/04/04 09:01:35;;;;;;;8.08;6.05;;;;;;;9.00;55.30;99263.30;1703090;84;21293;-65
2021/04/04 09:04:06;;;;;;;9.18;6.42;;;;;;;9.16;55.19;99268.34;1709756;84;21636;-64
2021/04/04 09:06:42;;;;;;;7.83;6.42;;;;;;;9.31;54.21;99267.22;1707654;84;21309;-64
2021/04/04 09:09:23;;;;;;;10.13;6.25;;;;;;;9.28;54.05;99267.42;1685646;84;21151;-64
2021/04/04 09:11:52;;;;;;;8.45;6.22;;;;;;;9.11;54.22;99267.34;1681632;85;21735;-64
2021/04/04 09:14:22;;;;;;;8.15;5.62;;;;;;;8.79;55.82;99269.16;1700757;84;21175;-64
2021/04/04 09:16:59;;;;;;;7.72;6.15;;;;;;;8.36;57.05;99283.97;1689933;83;21128;-64
2021/04/04 09:19:41;;;;;;;9.03;6.33;;;;;;;7.95;57.90;99282.36;1689119;84;21314;-64
2021/04/04 09:22:20;;;;;;;7.58;5.92;;;;;;;7.71;59.36;99293.56;1683793;85;21186;-64
2021/04/04 09:25:06;;;;;;;7.58;5.55;;;;;;;7.55;59.41;99297.69;1683731;85;21171;-64
2021/04/04 09:27:38;;;;;;;7.65;5.60;;;;;;;7.37;59.81;99297.92;1683963;85;21342;-64
2021/04/04 09:30:22;;;;;;;7.80;5.92;;;;;;;7.28;60.25;99303.78;1685521;84;21143;-64
2021/04/04 09:32:53;;;;;;;10.43;6.78;;;;;;;7.33;59.93;99295.13;1665077;85;21211;-64
2021/04/04 09:35:21;;;;;;;9.03;6.58;;;;;;;7.23;60.66;99291.39;1683957;85;21584;-66
2021/04/04 09:37:49;;;;;;;9.00;6.58;;;;;;;7.22;60.51;99293.65;1683791;85;21753;-66
2021/04/04 09:40:17;;;;;;;8.18;6.35;;;;;;;7.19;61.13;99292.54;1706235;84;21163;-66
2021/04/04 09:42:46;;;;;;;10.20;7.17;;;;;;;7.16;61.86;99296.66;1710190;84;21207;-63
2021/04/04 09:45:22;;;;;;;7.33;5.87;;;;;;;7.15;62.34;99295.00;1709152;84;21171;-66
2021/04/04 09:47:51;;;;;;;10.90;7.47;;;;;;;7.27;62.08;99296.83;1697295;84;21179;-66
2021/04/04 09:50:30;;;;;;;8.85;6.92;;;;;;;7.27;61.58;99295.52;1681200;85;21159;-66
2021/04/04 09:52:58;;;;;;;11.73;9.00;;;;;;;7.27;61.20;99288.94;1701331;84;21533;-66
2021/04/04 09:55:26;;;;;;;11.55;8.38;;;;;;;7.33;61.35;99289.03;1709566;84;21195;-66
2021/04/04 09:57:59;;;;;;;10.85;8.05;;;;;;;7.45;61.28;99278.18;1709369;84;21281;-65
2021/04/04 10:00:33;;;;;;;10.48;8.48;;;;;;;7.54;59.86;99274.94;1707675;84;21124;-66
2021/04/04 10:03:14;;;;;;;10.53;7.62;;;;;;;7.51;59.81;99277.78;1709194;84;21181;-66
2021/04/04 10:05:46;;;;;;;9.50;8.15;;;;;;;7.50;59.65;99276.09;1708987;84;21204;-64
2021/04/04 10:08:20;;;;;;;9.18;6.87;;;;;;;7.48;59.76;99285.86;1703689;83;21742;-64
2021/04/04 10:10:53;;;;;;;8.78;7.62;;;;;;;7.54;58.86;99281.06;1692325;84;21199;-64
2021/04/04 10:13:26;;;;;;;10.55;8.80;;;;;;;7.47;59.34;99282.88;1686835;84;21095;-64
2021/04/04 10:15:54;;;;;;;9.58;7.03;;;;;;;7.43;59.77;99281.37;1685814;84;21132;-64
2021/04/04 10:18:24;;;;;;;8.55;6.58;;;;;;;7.51;58.43;99285.68;1681329;85;21163;-64
2021/04/04 10:20:56;;;;;;;7.37;6.42;;;;;;;7.55;58.51;99280.58;1683187;84;21575;-65
2021/04/04 10:23:33;;;;;;;7.45;5.85;;;;;;;7.54;58.26;99285.02;1683972;84;21611;-64
2021/04/04 10:26:08;;;;;;;6.95;6.15;;;;;;;7.67;57.70;99284.19;1688988;84;21642;-65
2021/04/04 10:28:54;;;;;;;6.85;5.42;;;;;;;7.86;57.60;99266.25;1690944;83;21308;-64
2021/04/04 10:31:23;;;;;;;;;;;;;;;8.01;56.19;99271.42;1713950;83;21147;-64
2021/04/04 10:34:03;;;;;;;7.28;5.05;;;;;;;8.16;55.65;99274.33;1717532;83;20165;-64
2021/04/04 10:36:30;;;;;;;6.60;5.10;;;;;;;8.10;54.68;99268.64;1717813;83;21151;-65
2021/04/04 10:38:57;;;;;;;6.70;5.85;;;;;;;8.03;55.13;99263.78;1717729;83;21163;-65
2021/04/04 10:41:31;;;;;;;7.53;6.08;;;;;;;8.04;55.46;99271.20;1715905;83;21592;-65
2021/04/04 10:43:58;;;;;;;7.60;5.80;;;;;;;8.03;56.21;99276.95;1717648;83;21183;-65
2021/04/04 10:46:33;;;;;;;7.35;5.75;;;;;;;8.06;56.34;99267.14;1712937;83;21504;-65
2021/04/04 10:49:02;;;;;;;7.33;5.67;;;;;;;8.10;56.32;99272.59;1694064;83;21627;-65
2021/04/04 10:51:30;;;;;;;6.90;5.72;;;;;;;8.13;56.50;99268.42;1705346;83;21698;-65
2021/04/04 10:53:59;;;;;;;7.28;5.92;;;;;;;8.11;56.32;99264.59;1711943;83;21322;-66
2021/04/04 10:56:26;;;;;;;9.18;5.95;;;;;;;8.14;56.31;99268.80;1714843;83;21350;-64
2021/04/04 10:58:54;;;;;;;8.25;6.35;;;;;;;8.18;56.03;99267.64;1714809;83;21135;-65
2021/04/04 11:01:21;;;;;;;8.60;6.15;;;;;;;8.20;55.96;99263.12;1699308;83;21183;-65
2021/04/04 11:03:48;;;;;;;8.05;6.65;;;;;;;8.27;56.23;99260.41;1703228;83;21313;-65
2021/04/04 11:06:15;;;;;;;7.70;6.05;;;;;;;8.40;55.94;99258.26;1689120;85;21209;-65
2021/04/04 11:08:44;;;;;;;7.72;5.92;;;;;;;8.50;55.82;99263.30;1713671;83;21623;-65
2021/04/04 11:11:14;;;;;;;7.83;6.22;;;;;;;8.58;54.87;99248.26;1717507;83;21147;-65
2021/04/04 11:13:47;;;;;;;10.15;7.28;;;;;;;8.62;54.61;99248.41;1710498;83;21172;-65
2021/04/04 11:16:18;;;;;;;8.43;6.60;;;;;;;8.74;55.22;99248.03;1704662;83;21155;-65
2021/04/04 11:18:48;;;;;;;7.65;5.50;;;;;;;8.96;54.32;99246.85;1689073;85;21615;-65
2021/04/04 11:21:39;;;;;;;8.63;6.60;;;;;;;9.09;53.83;99247.30;1706183;83;21104;-65
2021/04/04 11:24:13;;;;;;;9.93;6.62;;;;;;;9.11;53.49;99234.84;1713973;83;21211;-65
2021/04/04 11:29:51;;;;;;;11.05;7.50;;;;;;;9.49;53.19;99225.92;1809234;78;23550;-66
2021/04/04 11:32:19;;;;;;;8.85;6.25;;;;;;;9.66;52.36;99227.30;1771073;80;21622;-66
2021/04/04 11:35:01;;;;;;;26.33;15.53;;;;;;;9.84;51.65;99222.42;1763870;81;21161;-65
2021/04/04 11:37:34;;;;;;;11.50;7.20;;;;;;;10.04;51.60;99220.05;1762149;81;21213;-67
2021/04/04 11:40:23;;;;;;;11.93;7.65;;;;;;;10.20;50.63;99224.52;1766602;81;21256;-65
2021/04/04 11:43:14;;;;;;;9.45;6.10;;;;;;;10.24;50.07;99236.53;1766061;80;21284;-64
2021/04/04 11:45:55;;;;;;;8.13;6.12;;;;;;;9.93;54.06;99249.45;1924216;73;22847;-66
2021/04/04 11:48:33;;;;;;;9.88;7.22;;;;;;;9.10;55.85;99262.17;1895181;74;21095;-64
2021/04/04 11:51:17;;;;;;;9.20;6.45;;;;;;;8.20;58.09;99274.97;1904546;74;21095;-63
2021/04/04 11:53:47;;;;;;;9.45;7.00;;;;;;;7.45;58.87;99278.18;1902855;75;22331;-64
2021/04/04 11:56:44;;;;;;;8.80;5.53;;;;;;;6.92;59.94;99289.39;1872441;75;21733;-64
2021/04/04 11:59:12;;;;;;;7.92;5.85;;;;;;;6.56;61.57;99292.05;1907954;74;21166;-64
2021/04/04 12:01:41;;;;;;;7.65;5.20;;;;;;;6.22;63.52;99275.70;1826917;77;21272;-65
2021/04/04 12:07:11;;;;;;;5.15;4.12;;;;;;;5.74;66.91;99272.75;1810680;79;22974;-65
2021/04/04 12:09:43;;;;;;;5.92;4.60;;;;;;;5.73;67.45;99268.44;1774845;80;21578;-65
2021/04/04 12:12:13;;;;;;;9.28;5.00;;;;;;;5.73;67.66;99261.05;1759327;80;21146;-65
2021/04/04 12:14:53;;;;;;;6.72;4.87;;;;;;;5.67;68.75;99267.95;1759095;80;21267;-65
2021/04/04 12:17:23;;;;;;;7.65;5.12;;;;;;;5.65;69.51;99256.69;1769082;80;21599;-65
2021/04/04 12:19:52;;;;;;;11.22;7.03;;;;;;;5.91;70.16;99261.27;1771933;80;21139;-65